sensor_id;sensor_type;location;lat;lon;timestamp;P1;durP1;ratioP1;P2;durP2;ratioP2
8490;SDS011;4282;49.986;7.938;2023-07-29T00:02:31;1.67;;;1.58;;
8490;SDS011;4282;49.986;7.938;2023-07-29T00:04:59;1.90;;;1.30;;
8490;SDS011;4282;49.986;7.938;2023-07-29T00:07:27;2.88;;;1.60;;
8490;SDS011;4282;49.986;7.938;2023-07-29T00:09:56;1.98;;;1.80;;
8490;SDS011;4282;49.986;7.938;2023-07-29T00:12:24;3.00;;;1.52;;
8490;SDS011;4282;49.986;7.938;2023-07-29T00:14:52;1.88;;;1.60;;
8490;SDS011;4282;49.986;7.938;2023-07-29T00:17:20;1.60;;;1.50;;
8490;SDS011;4282;49.986;7.938;2023-07-29T00:19:51;1.65;;;1.55;;
8490;SDS011;4282;49.986;7.938;2023-07-29T00:22:20;1.52;;;1.40;;
8490;SDS011;4282;49.986;7.938;2023-07-29T00:24:51;2.00;;;1.63;;
8490;SDS011;4282;49.986;7.938;2023-07-29T00:27:20;2.35;;;1.40;;
8490;SDS011;4282;49.986;7.938;2023-07-29T00:29:48;3.53;;;1.73;;
8490;SDS011;4282;49.986;7.938;2023-07-29T00:32:16;1.65;;;1.45;;
8490;SDS011;4282;49.986;7.938;2023-07-29T00:34:45;1.80;;;1.67;;
8490;SDS011;4282;49.986;7.938;2023-07-29T00:37:16;2.03;;;1.80;;
8490;SDS011;4282;49.986;7.938;2023-07-29T00:39:44;1.70;;;1.60;;
8490;SDS011;4282;49.986;7.938;2023-07-29T00:42:12;1.85;;;1.67;;
8490;SDS011;4282;49.986;7.938;2023-07-29T00:44:40;3.53;;;1.50;;
8490;SDS011;4282;49.986;7.938;2023-07-29T00:47:09;5.70;;;1.50;;
8490;SDS011;4282;49.986;7.938;2023-07-29T00:49:38;3.28;;;1.80;;
8490;SDS011;4282;49.986;7.938;2023-07-29T00:52:06;2.10;;;1.45;;
8490;SDS011;4282;49.986;7.938;2023-07-29T00:54:39;1.90;;;1.42;;
8490;SDS011;4282;49.986;7.938;2023-07-29T00:57:08;3.33;;;1.60;;
8490;SDS011;4282;49.986;7.938;2023-07-29T00:59:38;1.60;;;1.50;;
8490;SDS011;4282;49.986;7.938;2023-07-29T01:02:07;1.63;;;1.50;;
8490;SDS011;4282;49.986;7.938;2023-07-29T01:04:36;1.95;;;1.73;;
8490;SDS011;4282;49.986;7.938;2023-07-29T01:07:07;1.77;;;1.67;;
8490;SDS011;4282;49.986;7.938;2023-07-29T01:09:46;1.75;;;1.65;;
8490;SDS011;4282;49.986;7.938;2023-07-29T01:12:20;4.43;;;1.63;;
8490;SDS011;4282;49.986;7.938;2023-07-29T01:14:51;4.22;;;1.80;;
8490;SDS011;4282;49.986;7.938;2023-07-29T01:17:24;5.07;;;1.80;;
8490;SDS011;4282;49.986;7.938;2023-07-29T01:20:00;3.95;;;1.65;;
8490;SDS011;4282;49.986;7.938;2023-07-29T01:22:31;1.50;;;1.40;;
8490;SDS011;4282;49.986;7.938;2023-07-29T01:25:03;1.33;;;1.23;;
8490;SDS011;4282;49.986;7.938;2023-07-29T01:27:32;4.68;;;1.63;;
8490;SDS011;4282;49.986;7.938;2023-07-29T01:30:00;2.67;;;1.70;;
8490;SDS011;4282;49.986;7.938;2023-07-29T01:32:32;2.00;;;1.52;;
8490;SDS011;4282;49.986;7.938;2023-07-29T01:35:07;3.60;;;1.80;;
8490;SDS011;4282;49.986;7.938;2023-07-29T01:37:39;3.08;;;1.75;;
8490;SDS011;4282;49.986;7.938;2023-07-29T01:40:12;1.95;;;1.85;;
8490;SDS011;4282;49.986;7.938;2023-07-29T01:42:40;2.03;;;1.88;;
8490;SDS011;4282;49.986;7.938;2023-07-29T01:45:10;2.40;;;1.83;;
8490;SDS011;4282;49.986;7.938;2023-07-29T01:47:39;1.90;;;1.80;;
8490;SDS011;4282;49.986;7.938;2023-07-29T01:50:07;4.38;;;1.50;;
8490;SDS011;4282;49.986;7.938;2023-07-29T01:52:37;3.53;;;1.90;;
8490;SDS011;4282;49.986;7.938;2023-07-29T01:55:05;3.35;;;1.88;;
8490;SDS011;4282;49.986;7.938;2023-07-29T01:57:36;3.00;;;1.83;;
8490;SDS011;4282;49.986;7.938;2023-07-29T02:00:05;2.75;;;1.50;;
8490;SDS011;4282;49.986;7.938;2023-07-29T02:02:35;1.85;;;1.42;;
8490;SDS011;4282;49.986;7.938;2023-07-29T02:05:03;3.20;;;2.05;;
8490;SDS011;4282;49.986;7.938;2023-07-29T02:07:32;1.67;;;1.58;;
8490;SDS011;4282;49.986;7.938;2023-07-29T02:10:00;2.22;;;2.03;;
8490;SDS011;4282;49.986;7.938;2023-07-29T02:12:29;3.20;;;1.95;;
8490;SDS011;4282;49.986;7.938;2023-07-29T02:14:59;2.67;;;2.10;;
8490;SDS011;4282;49.986;7.938;2023-07-29T02:17:28;1.75;;;1.65;;
8490;SDS011;4282;49.986;7.938;2023-07-29T02:19:56;2.20;;;2.00;;
8490;SDS011;4282;49.986;7.938;2023-07-29T02:22:24;2.80;;;2.58;;
8490;SDS011;4282;49.986;7.938;2023-07-29T02:24:53;3.05;;;2.53;;
8490;SDS011;4282;49.986;7.938;2023-07-29T02:27:21;2.50;;;2.30;;
8490;SDS011;4282;49.986;7.938;2023-07-29T02:29:51;2.90;;;2.70;;
8490;SDS011;4282;49.986;7.938;2023-07-29T02:32:22;2.92;;;2.60;;
8490;SDS011;4282;49.986;7.938;2023-07-29T02:34:50;2.50;;;2.30;;
8490;SDS011;4282;49.986;7.938;2023-07-29T02:37:18;2.58;;;2.22;;
8490;SDS011;4282;49.986;7.938;2023-07-29T02:39:46;3.17;;;2.78;;
8490;SDS011;4282;49.986;7.938;2023-07-29T02:42:15;5.47;;;2.97;;
8490;SDS011;4282;49.986;7.938;2023-07-29T02:44:43;3.08;;;2.58;;
8490;SDS011;4282;49.986;7.938;2023-07-29T02:47:12;5.20;;;2.90;;
8490;SDS011;4282;49.986;7.938;2023-07-29T02:49:42;3.40;;;2.55;;
8490;SDS011;4282;49.986;7.938;2023-07-29T02:52:11;2.67;;;2.42;;
8490;SDS011;4282;49.986;7.938;2023-07-29T02:54:39;3.78;;;2.60;;
8490;SDS011;4282;49.986;7.938;2023-07-29T02:57:07;3.13;;;2.83;;
8490;SDS011;4282;49.986;7.938;2023-07-29T02:59:35;2.80;;;2.60;;
8490;SDS011;4282;49.986;7.938;2023-07-29T03:02:04;2.92;;;2.65;;
8490;SDS011;4282;49.986;7.938;2023-07-29T03:04:32;3.40;;;3.10;;
8490;SDS011;4282;49.986;7.938;2023-07-29T03:07:03;3.58;;;2.92;;
8490;SDS011;4282;49.986;7.938;2023-07-29T03:09:31;2.80;;;2.60;;
8490;SDS011;4282;49.986;7.938;2023-07-29T03:12:00;3.47;;;3.20;;
8490;SDS011;4282;49.986;7.938;2023-07-29T03:14:31;4.13;;;2.53;;
8490;SDS011;4282;49.986;7.938;2023-07-29T03:17:02;3.03;;;2.67;;
8490;SDS011;4282;49.986;7.938;2023-07-29T03:19:31;4.70;;;2.80;;
8490;SDS011;4282;49.986;7.938;2023-07-29T03:22:02;4.55;;;2.80;;
8490;SDS011;4282;49.986;7.938;2023-07-29T03:24:31;3.40;;;2.72;;
8490;SDS011;4282;49.986;7.938;2023-07-29T03:26:59;3.17;;;2.88;;
8490;SDS011;4282;49.986;7.938;2023-07-29T03:29:28;3.63;;;2.70;;
8490;SDS011;4282;49.986;7.938;2023-07-29T03:31:59;3.85;;;2.42;;
8490;SDS011;4282;49.986;7.938;2023-07-29T03:34:28;4.65;;;2.90;;
8490;SDS011;4282;49.986;7.938;2023-07-29T03:36:57;3.20;;;2.45;;
8490;SDS011;4282;49.986;7.938;2023-07-29T03:39:28;5.03;;;2.65;;
8490;SDS011;4282;49.986;7.938;2023-07-29T03:41:56;6.10;;;3.15;;
8490;SDS011;4282;49.986;7.938;2023-07-29T03:44:25;3.15;;;2.85;;
8490;SDS011;4282;49.986;7.938;2023-07-29T03:46:53;4.30;;;3.40;;
8490;SDS011;4282;49.986;7.938;2023-07-29T03:49:21;4.47;;;3.22;;
8490;SDS011;4282;49.986;7.938;2023-07-29T03:51:50;5.13;;;3.30;;
8490;SDS011;4282;49.986;7.938;2023-07-29T03:54:21;4.05;;;3.42;;
8490;SDS011;4282;49.986;7.938;2023-07-29T03:56:52;4.50;;;3.10;;
8490;SDS011;4282;49.986;7.938;2023-07-29T03:59:20;3.73;;;3.43;;
8490;SDS011;4282;49.986;7.938;2023-07-29T04:01:49;3.40;;;3.10;;
8490;SDS011;4282;49.986;7.938;2023-07-29T04:04:17;5.70;;;3.22;;
8490;SDS011;4282;49.986;7.938;2023-07-29T04:06:45;4.25;;;3.00;;
8490;SDS011;4282;49.986;7.938;2023-07-29T04:09:14;2.83;;;2.63;;
8490;SDS011;4282;49.986;7.938;2023-07-29T04:11:42;4.63;;;2.87;;
8490;SDS011;4282;49.986;7.938;2023-07-29T04:14:13;4.70;;;3.60;;
8490;SDS011;4282;49.986;7.938;2023-07-29T04:16:41;7.70;;;3.83;;
8490;SDS011;4282;49.986;7.938;2023-07-29T04:19:10;5.35;;;3.42;;
8490;SDS011;4282;49.986;7.938;2023-07-29T04:21:38;5.70;;;3.35;;
8490;SDS011;4282;49.986;7.938;2023-07-29T04:24:06;5.80;;;3.33;;
8490;SDS011;4282;49.986;7.938;2023-07-29T04:26:35;3.78;;;3.40;;
8490;SDS011;4282;49.986;7.938;2023-07-29T04:29:04;3.72;;;3.40;;
8490;SDS011;4282;49.986;7.938;2023-07-29T04:31:35;3.30;;;3.08;;
8490;SDS011;4282;49.986;7.938;2023-07-29T04:34:04;3.17;;;2.88;;
8490;SDS011;4282;49.986;7.938;2023-07-29T04:36:33;3.20;;;2.88;;
8490;SDS011;4282;49.986;7.938;2023-07-29T04:39:01;3.08;;;2.78;;
8490;SDS011;4282;49.986;7.938;2023-07-29T04:41:30;4.00;;;3.20;;
8490;SDS011;4282;49.986;7.938;2023-07-29T04:43:58;3.20;;;2.88;;
8490;SDS011;4282;49.986;7.938;2023-07-29T04:46:26;4.53;;;2.70;;
8490;SDS011;4282;49.986;7.938;2023-07-29T04:48:57;3.95;;;2.65;;
8490;SDS011;4282;49.986;7.938;2023-07-29T04:51:25;3.40;;;3.10;;
8490;SDS011;4282;49.986;7.938;2023-07-29T04:53:54;3.08;;;2.50;;
8490;SDS011;4282;49.986;7.938;2023-07-29T04:56:22;4.95;;;2.67;;
8490;SDS011;4282;49.986;7.938;2023-07-29T04:58:50;2.90;;;2.70;;
8490;SDS011;4282;49.986;7.938;2023-07-29T05:01:19;3.97;;;2.42;;
8490;SDS011;4282;49.986;7.938;2023-07-29T05:03:47;6.88;;;3.00;;
8490;SDS011;4282;49.986;7.938;2023-07-29T05:06:18;5.40;;;3.17;;
8490;SDS011;4282;49.986;7.938;2023-07-29T05:08:46;3.60;;;2.88;;
8490;SDS011;4282;49.986;7.938;2023-07-29T05:11:14;4.82;;;2.80;;
8490;SDS011;4282;49.986;7.938;2023-07-29T05:13:42;3.30;;;2.85;;
8490;SDS011;4282;49.986;7.938;2023-07-29T05:16:11;3.55;;;3.10;;
8490;SDS011;4282;49.986;7.938;2023-07-29T05:18:40;3.40;;;2.53;;
8490;SDS011;4282;49.986;7.938;2023-07-29T05:21:08;3.05;;;2.75;;
8490;SDS011;4282;49.986;7.938;2023-07-29T05:23:42;2.78;;;2.58;;
8490;SDS011;4282;49.986;7.938;2023-07-29T05:26:10;3.65;;;2.72;;
8490;SDS011;4282;49.986;7.938;2023-07-29T05:28:39;2.47;;;2.20;;
8490;SDS011;4282;49.986;7.938;2023-07-29T05:31:07;3.38;;;2.50;;
8490;SDS011;4282;49.986;7.938;2023-07-29T05:33:35;5.05;;;2.60;;
8490;SDS011;4282;49.986;7.938;2023-07-29T05:36:04;9.55;;;3.55;;
8490;SDS011;4282;49.986;7.938;2023-07-29T05:38:33;7.53;;;3.35;;
8490;SDS011;4282;49.986;7.938;2023-07-29T05:41:04;5.13;;;3.33;;
8490;SDS011;4282;49.986;7.938;2023-07-29T05:43:32;5.03;;;3.50;;
8490;SDS011;4282;49.986;7.938;2023-07-29T05:46:00;4.25;;;3.65;;
8490;SDS011;4282;49.986;7.938;2023-07-29T05:48:28;4.40;;;3.90;;
8490;SDS011;4282;49.986;7.938;2023-07-29T05:50:57;5.05;;;3.70;;
8490;SDS011;4282;49.986;7.938;2023-07-29T05:53:26;5.10;;;4.57;;
8490;SDS011;4282;49.986;7.938;2023-07-29T05:55:54;5.60;;;4.85;;
8490;SDS011;4282;49.986;7.938;2023-07-29T05:58:25;6.03;;;4.75;;
8490;SDS011;4282;49.986;7.938;2023-07-29T06:00:56;6.22;;;4.10;;
8490;SDS011;4282;49.986;7.938;2023-07-29T06:03:24;6.55;;;4.40;;
8490;SDS011;4282;49.986;7.938;2023-07-29T06:05:53;6.60;;;4.40;;
8490;SDS011;4282;49.986;7.938;2023-07-29T06:08:21;5.80;;;4.63;;
8490;SDS011;4282;49.986;7.938;2023-07-29T06:10:53;6.22;;;4.05;;
8490;SDS011;4282;49.986;7.938;2023-07-29T06:13:21;3.90;;;3.50;;
8490;SDS011;4282;49.986;7.938;2023-07-29T06:15:52;7.35;;;4.60;;
8490;SDS011;4282;49.986;7.938;2023-07-29T06:18:21;7.68;;;4.53;;
8490;SDS011;4282;49.986;7.938;2023-07-29T06:20:49;5.53;;;4.40;;
8490;SDS011;4282;49.986;7.938;2023-07-29T06:23:17;5.72;;;5.20;;
8490;SDS011;4282;49.986;7.938;2023-07-29T06:25:46;6.93;;;5.10;;
8490;SDS011;4282;49.986;7.938;2023-07-29T06:28:14;5.25;;;4.75;;
8490;SDS011;4282;49.986;7.938;2023-07-29T06:30:45;8.23;;;4.47;;
8490;SDS011;4282;49.986;7.938;2023-07-29T06:33:13;6.72;;;4.15;;
8490;SDS011;4282;49.986;7.938;2023-07-29T06:35:41;6.75;;;4.43;;
8490;SDS011;4282;49.986;7.938;2023-07-29T06:38:10;5.32;;;4.25;;
8490;SDS011;4282;49.986;7.938;2023-07-29T06:40:38;8.38;;;4.65;;
8490;SDS011;4282;49.986;7.938;2023-07-29T06:43:09;7.40;;;4.75;;
8490;SDS011;4282;49.986;7.938;2023-07-29T06:45:37;4.95;;;4.05;;
8490;SDS011;4282;49.986;7.938;2023-07-29T06:48:08;7.40;;;4.83;;
8490;SDS011;4282;49.986;7.938;2023-07-29T06:50:36;5.30;;;4.60;;
8490;SDS011;4282;49.986;7.938;2023-07-29T06:53:05;4.60;;;4.07;;
8490;SDS011;4282;49.986;7.938;2023-07-29T06:55:34;4.87;;;4.00;;
8490;SDS011;4282;49.986;7.938;2023-07-29T06:58:02;4.10;;;3.55;;
8490;SDS011;4282;49.986;7.938;2023-07-29T07:00:31;6.47;;;4.45;;
8490;SDS011;4282;49.986;7.938;2023-07-29T07:02:59;4.43;;;3.97;;
8490;SDS011;4282;49.986;7.938;2023-07-29T07:05:30;5.65;;;4.60;;
8490;SDS011;4282;49.986;7.938;2023-07-29T07:07:58;4.57;;;4.07;;
8490;SDS011;4282;49.986;7.938;2023-07-29T07:10:26;5.10;;;4.20;;
8490;SDS011;4282;49.986;7.938;2023-07-29T07:12:55;4.33;;;3.93;;
8490;SDS011;4282;49.986;7.938;2023-07-29T07:15:23;6.97;;;4.43;;
8490;SDS011;4282;49.986;7.938;2023-07-29T07:17:52;7.20;;;4.68;;
8490;SDS011;4282;49.986;7.938;2023-07-29T07:20:20;6.53;;;3.72;;
8490;SDS011;4282;49.986;7.938;2023-07-29T07:22:51;5.65;;;4.50;;
8490;SDS011;4282;49.986;7.938;2023-07-29T07:25:20;5.03;;;4.33;;
8490;SDS011;4282;49.986;7.938;2023-07-29T07:27:48;5.85;;;4.47;;
8490;SDS011;4282;49.986;7.938;2023-07-29T07:30:17;4.60;;;4.20;;
8490;SDS011;4282;49.986;7.938;2023-07-29T07:32:45;5.13;;;4.15;;
8490;SDS011;4282;49.986;7.938;2023-07-29T07:35:15;4.50;;;4.10;;
8490;SDS011;4282;49.986;7.938;2023-07-29T07:37:44;4.57;;;4.13;;
8490;SDS011;4282;49.986;7.938;2023-07-29T07:40:14;4.65;;;3.88;;
8490;SDS011;4282;49.986;7.938;2023-07-29T07:42:43;5.03;;;3.78;;
8490;SDS011;4282;49.986;7.938;2023-07-29T07:45:11;4.63;;;3.97;;
8490;SDS011;4282;49.986;7.938;2023-07-29T07:47:39;3.65;;;3.35;;
8490;SDS011;4282;49.986;7.938;2023-07-29T07:50:08;2.47;;;2.28;;
8490;SDS011;4282;49.986;7.938;2023-07-29T07:52:37;2.70;;;2.50;;
8490;SDS011;4282;49.986;7.938;2023-07-29T07:55:05;3.22;;;2.28;;
8490;SDS011;4282;49.986;7.938;2023-07-29T07:57:37;4.55;;;2.55;;
8490;SDS011;4282;49.986;7.938;2023-07-29T08:00:06;2.47;;;2.28;;
8490;SDS011;4282;49.986;7.938;2023-07-29T08:02:35;2.80;;;2.60;;
8490;SDS011;4282;49.986;7.938;2023-07-29T08:05:03;2.95;;;2.75;;
8490;SDS011;4282;49.986;7.938;2023-07-29T08:07:33;3.80;;;2.63;;
8490;SDS011;4282;49.986;7.938;2023-07-29T08:10:02;3.28;;;2.97;;
8490;SDS011;4282;49.986;7.938;2023-07-29T08:12:30;2.83;;;2.63;;
8490;SDS011;4282;49.986;7.938;2023-07-29T08:15:01;4.32;;;2.88;;
8490;SDS011;4282;49.986;7.938;2023-07-29T08:17:29;4.85;;;2.80;;
8490;SDS011;4282;49.986;7.938;2023-07-29T08:19:57;2.88;;;2.67;;
8490;SDS011;4282;49.986;7.938;2023-07-29T08:22:26;3.08;;;2.78;;
8490;SDS011;4282;49.986;7.938;2023-07-29T08:24:54;5.63;;;2.60;;
8490;SDS011;4282;49.986;7.938;2023-07-29T08:27:23;3.97;;;2.67;;
8490;SDS011;4282;49.986;7.938;2023-07-29T08:29:51;2.78;;;2.55;;
8490;SDS011;4282;49.986;7.938;2023-07-29T08:32:24;2.80;;;2.60;;
8490;SDS011;4282;49.986;7.938;2023-07-29T08:34:52;3.47;;;2.80;;
8490;SDS011;4282;49.986;7.938;2023-07-29T08:37:20;4.28;;;2.30;;
8490;SDS011;4282;49.986;7.938;2023-07-29T08:39:49;4.60;;;2.72;;
8490;SDS011;4282;49.986;7.938;2023-07-29T08:42:19;3.15;;;2.00;;
8490;SDS011;4282;49.986;7.938;2023-07-29T08:44:47;2.15;;;1.95;;
8490;SDS011;4282;49.986;7.938;2023-07-29T08:47:17;2.22;;;1.70;;
8490;SDS011;4282;49.986;7.938;2023-07-29T08:49:49;3.05;;;2.42;;
8490;SDS011;4282;49.986;7.938;2023-07-29T08:52:18;1.70;;;1.60;;
8490;SDS011;4282;49.986;7.938;2023-07-29T08:54:47;2.78;;;1.60;;
8490;SDS011;4282;49.986;7.938;2023-07-29T08:57:17;3.47;;;1.50;;
8490;SDS011;4282;49.986;7.938;2023-07-29T08:59:46;1.98;;;1.50;;
8490;SDS011;4282;49.986;7.938;2023-07-29T09:02:15;3.45;;;1.60;;
8490;SDS011;4282;49.986;7.938;2023-07-29T09:04:43;2.03;;;1.55;;
8490;SDS011;4282;49.986;7.938;2023-07-29T09:07:14;1.85;;;1.42;;
8490;SDS011;4282;49.986;7.938;2023-07-29T09:09:43;1.63;;;1.52;;
8490;SDS011;4282;49.986;7.938;2023-07-29T09:12:11;1.63;;;1.52;;
8490;SDS011;4282;49.986;7.938;2023-07-29T09:14:39;2.78;;;2.08;;
8490;SDS011;4282;49.986;7.938;2023-07-29T09:17:08;1.70;;;1.60;;
8490;SDS011;4282;49.986;7.938;2023-07-29T09:19:37;4.47;;;1.42;;
8490;SDS011;4282;49.986;7.938;2023-07-29T09:22:08;4.07;;;1.90;;
8490;SDS011;4282;49.986;7.938;2023-07-29T09:24:47;2.75;;;1.60;;
8490;SDS011;4282;49.986;7.938;2023-07-29T09:27:25;2.45;;;1.50;;
8490;SDS011;4282;49.986;7.938;2023-07-29T09:29:57;1.50;;;1.38;;
8490;SDS011;4282;49.986;7.938;2023-07-29T09:32:25;2.03;;;1.50;;
8490;SDS011;4282;49.986;7.938;2023-07-29T09:34:53;2.58;;;1.45;;
8490;SDS011;4282;49.986;7.938;2023-07-29T09:37:24;1.38;;;1.20;;
8490;SDS011;4282;49.986;7.938;2023-07-29T09:39:52;1.92;;;1.60;;
8490;SDS011;4282;49.986;7.938;2023-07-29T09:42:21;2.25;;;1.70;;
8490;SDS011;4282;49.986;7.938;2023-07-29T09:44:50;1.73;;;1.55;;
8490;SDS011;4282;49.986;7.938;2023-07-29T09:47:19;1.73;;;1.17;;
8490;SDS011;4282;49.986;7.938;2023-07-29T09:49:49;1.60;;;1.50;;
8490;SDS011;4282;49.986;7.938;2023-07-29T09:52:18;2.20;;;1.80;;
8490;SDS011;4282;49.986;7.938;2023-07-29T09:54:50;2.22;;;1.60;;
8490;SDS011;4282;49.986;7.938;2023-07-29T09:57:18;8.00;;;3.00;;
8490;SDS011;4282;49.986;7.938;2023-07-29T09:59:53;5.55;;;2.63;;
8490;SDS011;4282;49.986;7.938;2023-07-29T10:02:21;3.75;;;2.70;;
8490;SDS011;4282;49.986;7.938;2023-07-29T10:04:52;3.30;;;2.47;;
8490;SDS011;4282;49.986;7.938;2023-07-29T10:07:21;4.22;;;2.50;;
8490;SDS011;4282;49.986;7.938;2023-07-29T10:09:52;5.60;;;3.22;;
8490;SDS011;4282;49.986;7.938;2023-07-29T10:12:21;2.92;;;2.63;;
8490;SDS011;4282;49.986;7.938;2023-07-29T10:14:50;3.13;;;2.50;;
8490;SDS011;4282;49.986;7.938;2023-07-29T10:17:19;2.72;;;2.17;;
8490;SDS011;4282;49.986;7.938;2023-07-29T10:19:47;1.73;;;1.63;;
8490;SDS011;4282;49.986;7.938;2023-07-29T10:22:16;2.40;;;1.60;;
8490;SDS011;4282;49.986;7.938;2023-07-29T10:24:45;2.03;;;1.73;;
8490;SDS011;4282;49.986;7.938;2023-07-29T10:27:18;1.50;;;1.15;;
8490;SDS011;4282;49.986;7.938;2023-07-29T10:29:46;1.45;;;1.35;;
8490;SDS011;4282;49.986;7.938;2023-07-29T10:32:15;2.35;;;1.30;;
8490;SDS011;4282;49.986;7.938;2023-07-29T10:34:43;3.13;;;1.42;;
8490;SDS011;4282;49.986;7.938;2023-07-29T10:37:12;2.40;;;1.50;;
8490;SDS011;4282;49.986;7.938;2023-07-29T10:39:40;2.42;;;1.75;;
8490;SDS011;4282;49.986;7.938;2023-07-29T10:42:13;3.72;;;1.65;;
8490;SDS011;4282;49.986;7.938;2023-07-29T10:44:51;2.80;;;1.90;;
8490;SDS011;4282;49.986;7.938;2023-07-29T10:47:21;2.13;;;1.90;;
8490;SDS011;4282;49.986;7.938;2023-07-29T10:49:51;1.77;;;1.67;;
8490;SDS011;4282;49.986;7.938;2023-07-29T10:52:28;1.92;;;1.83;;
8490;SDS011;4282;49.986;7.938;2023-07-29T10:54:58;2.15;;;1.95;;
8490;SDS011;4282;49.986;7.938;2023-07-29T10:57:31;2.65;;;1.63;;
8490;SDS011;4282;49.986;7.938;2023-07-29T11:00:03;3.78;;;1.70;;
8490;SDS011;4282;49.986;7.938;2023-07-29T11:02:34;3.40;;;1.67;;
8490;SDS011;4282;49.986;7.938;2023-07-29T11:05:04;2.90;;;1.60;;
8490;SDS011;4282;49.986;7.938;2023-07-29T11:07:42;1.40;;;1.30;;
8490;SDS011;4282;49.986;7.938;2023-07-29T11:10:11;2.22;;;1.90;;
8490;SDS011;4282;49.986;7.938;2023-07-29T11:12:40;1.63;;;1.52;;
8490;SDS011;4282;49.986;7.938;2023-07-29T11:18:02;2.53;;;1.85;;
8490;SDS011;4282;49.986;7.938;2023-07-29T11:20:31;2.22;;;1.45;;
8490;SDS011;4282;49.986;7.938;2023-07-29T11:23:00;1.40;;;1.30;;
8490;SDS011;4282;49.986;7.938;2023-07-29T11:25:30;2.60;;;1.30;;
8490;SDS011;4282;49.986;7.938;2023-07-29T11:27:59;1.33;;;1.23;;
8490;SDS011;4282;49.986;7.938;2023-07-29T11:30:28;1.40;;;1.30;;
8490;SDS011;4282;49.986;7.938;2023-07-29T11:32:59;2.22;;;1.40;;
8490;SDS011;4282;49.986;7.938;2023-07-29T11:35:27;3.50;;;1.70;;
8490;SDS011;4282;49.986;7.938;2023-07-29T11:37:55;1.90;;;1.40;;
8490;SDS011;4282;49.986;7.938;2023-07-29T11:40:24;8.05;;;1.70;;
8490;SDS011;4282;49.986;7.938;2023-07-29T11:42:52;1.33;;;1.23;;
8490;SDS011;4282;49.986;7.938;2023-07-29T11:45:22;1.65;;;1.55;;
8490;SDS011;4282;49.986;7.938;2023-07-29T11:47:51;1.48;;;1.30;;
8490;SDS011;4282;49.986;7.938;2023-07-29T11:50:22;1.70;;;1.55;;
8490;SDS011;4282;49.986;7.938;2023-07-29T11:52:50;1.45;;;1.35;;
8490;SDS011;4282;49.986;7.938;2023-07-29T11:55:18;3.38;;;1.35;;
8490;SDS011;4282;49.986;7.938;2023-07-29T11:57:46;1.80;;;1.42;;
8490;SDS011;4282;49.986;7.938;2023-07-29T12:00:18;1.50;;;1.40;;
8490;SDS011;4282;49.986;7.938;2023-07-29T12:02:48;2.85;;;1.40;;
8490;SDS011;4282;49.986;7.938;2023-07-29T12:05:17;1.40;;;1.30;;
8490;SDS011;4282;49.986;7.938;2023-07-29T12:07:49;1.25;;;1.15;;
8490;SDS011;4282;49.986;7.938;2023-07-29T12:10:17;1.30;;;1.20;;
8490;SDS011;4282;49.986;7.938;2023-07-29T12:12:47;2.47;;;1.00;;
8490;SDS011;4282;49.986;7.938;2023-07-29T12:15:23;1.40;;;1.30;;
8490;SDS011;4282;49.986;7.938;2023-07-29T12:17:52;1.30;;;1.20;;
8490;SDS011;4282;49.986;7.938;2023-07-29T12:20:22;1.88;;;1.20;;
8490;SDS011;4282;49.986;7.938;2023-07-29T12:22:54;1.52;;;1.30;;
8490;SDS011;4282;49.986;7.938;2023-07-29T12:25:23;2.25;;;1.40;;
8490;SDS011;4282;49.986;7.938;2023-07-29T12:27:52;1.85;;;1.30;;
8490;SDS011;4282;49.986;7.938;2023-07-29T12:30:20;1.35;;;1.25;;
8490;SDS011;4282;49.986;7.938;2023-07-29T12:32:49;2.15;;;1.30;;
8490;SDS011;4282;49.986;7.938;2023-07-29T12:35:18;1.20;;;1.10;;
8490;SDS011;4282;49.986;7.938;2023-07-29T12:37:46;1.73;;;1.20;;
8490;SDS011;4282;49.986;7.938;2023-07-29T12:40:24;1.20;;;1.10;;
8490;SDS011;4282;49.986;7.938;2023-07-29T12:42:53;1.20;;;1.10;;
8490;SDS011;4282;49.986;7.938;2023-07-29T12:45:21;1.40;;;1.30;;
8490;SDS011;4282;49.986;7.938;2023-07-29T12:47:52;1.55;;;1.35;;
8490;SDS011;4282;49.986;7.938;2023-07-29T12:50:20;1.42;;;1.33;;
8490;SDS011;4282;49.986;7.938;2023-07-29T12:52:48;2.47;;;1.40;;
8490;SDS011;4282;49.986;7.938;2023-07-29T12:55:17;1.52;;;1.27;;
8490;SDS011;4282;49.986;7.938;2023-07-29T12:57:48;1.33;;;1.23;;
8490;SDS011;4282;49.986;7.938;2023-07-29T13:00:17;4.53;;;1.50;;
8490;SDS011;4282;49.986;7.938;2023-07-29T13:02:46;2.55;;;1.45;;
8490;SDS011;4282;49.986;7.938;2023-07-29T13:05:14;1.70;;;1.30;;
8490;SDS011;4282;49.986;7.938;2023-07-29T13:07:42;1.77;;;1.27;;
8490;SDS011;4282;49.986;7.938;2023-07-29T13:10:11;3.92;;;1.40;;
8490;SDS011;4282;49.986;7.938;2023-07-29T13:12:39;1.55;;;1.45;;
8490;SDS011;4282;49.986;7.938;2023-07-29T13:15:11;2.28;;;1.30;;
8490;SDS011;4282;49.986;7.938;2023-07-29T13:17:39;1.40;;;1.30;;
8490;SDS011;4282;49.986;7.938;2023-07-29T13:20:08;2.22;;;1.40;;
8490;SDS011;4282;49.986;7.938;2023-07-29T13:22:37;1.58;;;1.42;;
8490;SDS011;4282;49.986;7.938;2023-07-29T13:25:05;1.45;;;1.35;;
8490;SDS011;4282;49.986;7.938;2023-07-29T13:27:34;3.80;;;1.40;;
8490;SDS011;4282;49.986;7.938;2023-07-29T13:30:02;1.40;;;1.30;;
8490;SDS011;4282;49.986;7.938;2023-07-29T13:32:34;1.30;;;1.20;;
8490;SDS011;4282;49.986;7.938;2023-07-29T13:35:02;2.78;;;1.50;;
8490;SDS011;4282;49.986;7.938;2023-07-29T13:37:31;1.58;;;1.48;;
8490;SDS011;4282;49.986;7.938;2023-07-29T13:40:00;1.40;;;1.30;;
8490;SDS011;4282;49.986;7.938;2023-07-29T13:42:28;1.90;;;1.70;;
8490;SDS011;4282;49.986;7.938;2023-07-29T13:44:56;1.65;;;1.40;;
8490;SDS011;4282;49.986;7.938;2023-07-29T13:47:24;1.60;;;1.50;;
8490;SDS011;4282;49.986;7.938;2023-07-29T13:49:55;1.70;;;1.33;;
8490;SDS011;4282;49.986;7.938;2023-07-29T13:52:23;1.52;;;1.20;;
8490;SDS011;4282;49.986;7.938;2023-07-29T13:54:52;1.55;;;1.45;;
8490;SDS011;4282;49.986;7.938;2023-07-29T13:57:20;3.03;;;1.30;;
8490;SDS011;4282;49.986;7.938;2023-07-29T13:59:48;1.63;;;1.30;;
8490;SDS011;4282;49.986;7.938;2023-07-29T14:02:16;1.30;;;1.20;;
8490;SDS011;4282;49.986;7.938;2023-07-29T14:04:45;2.33;;;1.40;;
8490;SDS011;4282;49.986;7.938;2023-07-29T14:07:16;1.55;;;1.30;;
8490;SDS011;4282;49.986;7.938;2023-07-29T14:09:44;1.77;;;1.30;;
8490;SDS011;4282;49.986;7.938;2023-07-29T14:12:13;1.35;;;1.25;;
8490;SDS011;4282;49.986;7.938;2023-07-29T14:14:41;1.40;;;1.30;;
8490;SDS011;4282;49.986;7.938;2023-07-29T14:17:09;1.40;;;1.30;;
8490;SDS011;4282;49.986;7.938;2023-07-29T14:19:38;1.52;;;1.10;;
8490;SDS011;4282;49.986;7.938;2023-07-29T14:22:06;1.30;;;1.20;;
8490;SDS011;4282;49.986;7.938;2023-07-29T14:24:40;2.15;;;1.60;;
8490;SDS011;4282;49.986;7.938;2023-07-29T14:27:08;1.48;;;1.27;;
8490;SDS011;4282;49.986;7.938;2023-07-29T14:29:36;2.45;;;1.50;;
8490;SDS011;4282;49.986;7.938;2023-07-29T14:32:05;1.40;;;1.30;;
8490;SDS011;4282;49.986;7.938;2023-07-29T14:34:34;1.38;;;1.27;;
8490;SDS011;4282;49.986;7.938;2023-07-29T14:37:02;1.25;;;1.15;;
8490;SDS011;4282;49.986;7.938;2023-07-29T14:39:31;2.30;;;1.40;;
8490;SDS011;4282;49.986;7.938;2023-07-29T14:42:02;1.40;;;1.30;;
8490;SDS011;4282;49.986;7.938;2023-07-29T14:44:30;1.40;;;1.30;;
8490;SDS011;4282;49.986;7.938;2023-07-29T14:46:58;1.95;;;1.23;;
8490;SDS011;4282;49.986;7.938;2023-07-29T14:49:27;0.95;;;0.93;;
8490;SDS011;4282;49.986;7.938;2023-07-29T14:51:55;1.40;;;1.30;;
8490;SDS011;4282;49.986;7.938;2023-07-29T14:54:23;1.92;;;1.23;;
8490;SDS011;4282;49.986;7.938;2023-07-29T14:56:52;4.60;;;1.58;;
8490;SDS011;4282;49.986;7.938;2023-07-29T14:59:22;1.85;;;1.50;;
8490;SDS011;4282;49.986;7.938;2023-07-29T15:01:51;1.77;;;1.40;;
8490;SDS011;4282;49.986;7.938;2023-07-29T15:04:19;2.45;;;1.40;;
8490;SDS011;4282;49.986;7.938;2023-07-29T15:06:47;1.95;;;1.20;;
8490;SDS011;4282;49.986;7.938;2023-07-29T15:09:16;1.52;;;1.30;;
8490;SDS011;4282;49.986;7.938;2023-07-29T15:11:44;1.92;;;1.65;;
8490;SDS011;4282;49.986;7.938;2023-07-29T15:14:12;1.27;;;1.17;;
8490;SDS011;4282;49.986;7.938;2023-07-29T15:16:44;1.55;;;1.45;;
8490;SDS011;4282;49.986;7.938;2023-07-29T15:19:12;1.60;;;1.50;;
8490;SDS011;4282;49.986;7.938;2023-07-29T15:21:41;2.90;;;1.65;;
8490;SDS011;4282;49.986;7.938;2023-07-29T15:24:09;2.40;;;1.30;;
8490;SDS011;4282;49.986;7.938;2023-07-29T15:26:37;1.60;;;1.30;;
8490;SDS011;4282;49.986;7.938;2023-07-29T15:29:06;1.50;;;1.30;;
8490;SDS011;4282;49.986;7.938;2023-07-29T15:31:35;1.75;;;1.30;;